Cambridge, Canada
Current Conditions -  °F | °C
As of 9:32 PM on Thursday 20 Nov 2014 (Local Time) from CYKF Reporting Station
Light Snow Light Snow  
Wind Chill:   Ceiling: Unl
Heat Index: 16°   Visibility: 9mi
Dew Point: 10°   Wind: 10mph
Humidity: 79%   Direction: 240°WSW
Pressure: 29.95"   Gusts: NA
Location:  43.38°N, 80.32°W
Report Text: CYKF 210232Z AUTO 24009KT 9SM -SN SCT035 M09/M12 A2995 RMK SLP159
Loading
Personal Weather Stations






























Interactive Weather Map New forecast layout! Learn more

10-Day Weather Forecast

Advertisements
Track Severe Weather on mobile